createdAt,value
2018-12-16T00:01:02.572Z,2.02
2018-12-16T00:03:40.002Z,1.76
2018-12-16T00:06:19.203Z,1.60
2018-12-16T00:08:56.008Z,1.83
2018-12-16T00:11:33.024Z,1.94
2018-12-16T00:14:10.286Z,1.94
2018-12-16T00:16:46.758Z,2.16
2018-12-16T00:19:25.717Z,2.09
2018-12-16T00:22:02.968Z,2.22
2018-12-16T00:24:43.229Z,2.25
2018-12-16T00:27:21.127Z,2.16
2018-12-16T00:30:04.949Z,1.89
2018-12-16T00:32:41.655Z,1.90
2018-12-16T00:35:19.520Z,2.05
2018-12-16T00:37:57.761Z,1.85
2018-12-16T00:40:37.647Z,2.01
2018-12-16T00:43:15.822Z,1.87
2018-12-16T00:45:52.665Z,1.78
2018-12-16T00:48:29.427Z,1.78
2018-12-16T00:51:06.664Z,1.83
2018-12-16T00:53:46.378Z,1.85
2018-12-16T00:56:23.858Z,2.05
2018-12-16T00:59:01.226Z,1.94
2018-12-16T01:01:38.466Z,1.99
2018-12-16T01:04:15.530Z,2.01
2018-12-16T01:06:53.822Z,1.98
2018-12-16T01:09:32.869Z,2.06
2018-12-16T01:12:11.377Z,2.08
2018-12-16T01:14:49.776Z,2.29
2018-12-16T01:17:30.219Z,2.20
2018-12-16T01:20:09.481Z,2.22
2018-12-16T01:22:48.553Z,2.17
2018-12-16T01:25:29.187Z,2.06
2018-12-16T01:28:06.475Z,2.13
2018-12-16T01:30:44.379Z,2.05
2018-12-16T01:33:21.053Z,2.16
2018-12-16T01:35:59.222Z,2.43
2018-12-16T01:38:44.488Z,2.42
2018-12-16T01:41:21.362Z,2.37
2018-12-16T01:43:58.748Z,2.32
2018-12-16T01:46:35.799Z,2.31
2018-12-16T01:49:13.439Z,2.46
2018-12-16T01:51:51.140Z,2.38
2018-12-16T01:54:29.412Z,2.36
2018-12-16T01:57:08.494Z,2.48
2018-12-16T01:59:45.073Z,2.42
2018-12-16T02:02:22.387Z,2.43
2018-12-16T02:04:59.978Z,2.68
2018-12-16T02:07:37.052Z,2.56
2018-12-16T02:10:15.228Z,2.27
2018-12-16T02:12:53.471Z,2.28
2018-12-16T02:15:30.990Z,2.31
2018-12-16T02:18:08.535Z,2.39
2018-12-16T02:20:45.729Z,2.35
2018-12-16T02:23:23.216Z,2.28
2018-12-16T02:25:59.582Z,2.31
2018-12-16T02:28:36.779Z,2.32
2018-12-16T02:31:15.603Z,2.23
2018-12-16T02:33:56.714Z,2.25
2018-12-16T02:36:33.739Z,2.35
2018-12-16T02:39:10.379Z,2.37
2018-12-16T02:41:48.666Z,2.43
2018-12-16T02:44:28.148Z,2.27
2018-12-16T02:47:06.190Z,2.13
2018-12-16T02:49:42.787Z,2.01
2018-12-16T02:52:19.951Z,2.15
2018-12-16T02:54:56.983Z,2.16
2018-12-16T02:57:33.912Z,2.22
2018-12-16T03:00:14.276Z,2.35
2018-12-16T03:02:53.642Z,2.41
2018-12-16T03:05:33.376Z,2.32
2018-12-16T03:08:12.392Z,2.31
2018-12-16T03:10:53.407Z,2.45
2018-12-16T03:13:32.676Z,2.44
2018-12-16T03:16:09.878Z,2.29
2018-12-16T03:18:46.458Z,2.10
2018-12-16T03:21:23.139Z,1.97
2018-12-16T03:24:03.820Z,2.32
2018-12-16T03:26:44.722Z,2.30
2018-12-16T03:29:29.118Z,2.39
2018-12-16T03:32:07.778Z,2.41
2018-12-16T03:34:45.842Z,2.17
2018-12-16T03:37:23.710Z,2.11
2018-12-16T03:40:00.492Z,2.03
2018-12-16T03:42:41.093Z,2.19
2018-12-16T03:45:19.026Z,2.23
2018-12-16T03:47:57.725Z,2.22
2018-12-16T03:50:34.739Z,2.20
2018-12-16T03:53:11.244Z,2.32
2018-12-16T03:55:49.522Z,2.26
2018-12-16T03:58:27.846Z,2.18
2018-12-16T04:04:12.487Z,2.20
2018-12-16T04:06:50.717Z,2.15
2018-12-16T04:09:30.690Z,2.31
2018-12-16T04:12:08.052Z,2.29
2018-12-16T04:14:45.692Z,2.30
2018-12-16T04:17:23.614Z,2.06
2018-12-16T04:20:03.079Z,1.94
2018-12-16T04:22:40.048Z,1.88
2018-12-16T04:25:17.428Z,2.14
2018-12-16T04:27:54.481Z,2.19
2018-12-16T04:30:32.341Z,2.32
2018-12-16T04:33:13.944Z,2.08
2018-12-16T04:35:51.228Z,2.07
2018-12-16T04:38:28.375Z,2.13
2018-12-16T04:41:05.451Z,2.15
2018-12-16T04:43:44.070Z,1.99
2018-12-16T04:46:20.982Z,2.08
2018-12-16T04:48:58.026Z,2.25
2018-12-16T04:51:36.443Z,2.02
2018-12-16T04:54:14.058Z,2.31
2018-12-16T04:56:50.996Z,2.26
2018-12-16T04:59:28.440Z,2.00
2018-12-16T05:02:08.994Z,2.00
2018-12-16T05:04:46.755Z,2.07
2018-12-16T05:07:24.088Z,2.09
2018-12-16T05:10:11.214Z,2.08
2018-12-16T05:12:47.944Z,2.12
2018-12-16T05:15:25.681Z,2.19
2018-12-16T05:18:03.180Z,2.17
2018-12-16T05:20:44.093Z,2.28
2018-12-16T05:23:22.075Z,2.35
2018-12-16T05:25:58.736Z,2.29
2018-12-16T05:28:35.953Z,2.32
2018-12-16T05:31:13.237Z,2.26
2018-12-16T05:33:51.388Z,2.25
2018-12-16T05:36:28.091Z,2.30
2018-12-16T05:39:06.448Z,2.34
2018-12-16T05:41:45.093Z,2.30
2018-12-16T05:44:22.431Z,2.25
2018-12-16T05:47:02.360Z,2.32
2018-12-16T05:49:40.695Z,2.35
2018-12-16T05:52:18.970Z,2.33
2018-12-16T05:54:59.219Z,2.44
2018-12-16T05:57:36.797Z,2.51
2018-12-16T06:00:16.274Z,2.66
2018-12-16T06:02:54.446Z,2.98
2018-12-16T06:05:31.192Z,3.27
2018-12-16T06:08:07.865Z,3.18
2018-12-16T06:10:46.071Z,3.16
2018-12-16T06:13:22.456Z,3.36
2018-12-16T06:15:59.206Z,3.61
2018-12-16T06:18:35.928Z,3.76
2018-12-16T06:21:12.641Z,3.89
2018-12-16T06:23:55.356Z,3.98
2018-12-16T06:26:28.454Z,4.23
2018-12-16T06:29:04.913Z,4.62
2018-12-16T06:31:41.372Z,4.49
2018-12-16T06:34:17.703Z,4.49
2018-12-16T06:36:54.858Z,4.50
2018-12-16T06:39:30.783Z,4.65
2018-12-16T06:42:06.901Z,4.69
2018-12-16T06:44:57.711Z,4.94
2018-12-16T06:47:38.501Z,4.89
2018-12-16T06:50:15.014Z,4.98
2018-12-16T06:52:56.935Z,4.99
2018-12-16T06:55:43.230Z,5.03
2018-12-16T06:58:31.828Z,5.05
2018-12-16T07:01:25.058Z,4.93
2018-12-16T07:04:01.690Z,4.90
2018-12-16T07:06:40.133Z,4.94
2018-12-16T07:11:59.475Z,4.92
2018-12-16T07:14:35.422Z,4.97
2018-12-16T07:17:11.559Z,4.95
2018-12-16T07:21:11.885Z,4.94
2018-12-16T07:23:47.946Z,4.93
2018-12-16T07:26:24.161Z,4.91
2018-12-16T07:29:00.273Z,4.93
2018-12-16T07:31:36.275Z,4.90
2018-12-16T07:34:12.425Z,4.95
2018-12-16T07:36:48.518Z,4.95
2018-12-16T07:39:24.846Z,4.94
2018-12-16T07:42:01.193Z,4.95
2018-12-16T07:44:37.275Z,4.95
2018-12-16T07:47:15.410Z,4.91
2018-12-16T07:49:51.356Z,4.83
2018-12-16T07:52:27.625Z,4.82
2018-12-16T07:55:04.179Z,4.80
2018-12-16T07:57:40.356Z,4.76
2018-12-16T08:00:17.258Z,4.72
2018-12-16T08:02:53.388Z,4.74
2018-12-16T08:05:29.435Z,4.59
2018-12-16T08:08:09.475Z,4.65
2018-12-16T08:10:45.519Z,4.68
2018-12-16T08:13:21.533Z,4.81
2018-12-16T08:15:58.157Z,5.35
2018-12-16T08:18:34.334Z,5.25
2018-12-16T08:21:10.715Z,5.31
2018-12-16T08:23:46.831Z,5.24
2018-12-16T08:26:23.061Z,5.34
2018-12-16T08:29:00.033Z,5.46
2018-12-16T08:31:37.545Z,5.53
2018-12-16T08:34:15.369Z,5.61
2018-12-16T08:36:51.864Z,5.64
2018-12-16T08:39:28.414Z,5.72
2018-12-16T08:42:04.731Z,5.73
2018-12-16T08:44:42.187Z,5.72
2018-12-16T08:47:18.656Z,5.84
2018-12-16T08:49:54.694Z,6.00
2018-12-16T08:52:30.779Z,6.10
2018-12-16T08:55:07.323Z,6.13
2018-12-16T08:57:43.509Z,6.26
2018-12-16T09:00:19.529Z,6.11
2018-12-16T09:02:55.697Z,6.09
2018-12-16T09:05:31.670Z,6.34
2018-12-16T09:08:07.753Z,6.39
2018-12-16T09:10:43.794Z,6.15
2018-12-16T09:13:19.897Z,5.58
2018-12-16T09:15:55.890Z,5.55
2018-12-16T09:18:32.063Z,5.32
2018-12-16T09:21:07.998Z,5.06
2018-12-16T09:23:44.122Z,5.17
2018-12-16T09:26:20.451Z,5.43
2018-12-16T09:28:56.588Z,5.19
2018-12-16T09:31:32.878Z,5.04
2018-12-16T09:34:09.365Z,5.21
2018-12-16T09:36:45.619Z,5.29
2018-12-16T09:39:22.277Z,5.36
2018-12-16T09:41:58.228Z,4.92
2018-12-16T09:44:35.876Z,4.69
2018-12-16T09:47:18.011Z,4.87
2018-12-16T09:49:53.957Z,4.83
2018-12-16T09:52:29.970Z,4.60
2018-12-16T09:55:06.959Z,4.39
2018-12-16T09:57:43.011Z,4.43
2018-12-16T10:00:19.097Z,4.47
2018-12-16T10:02:55.157Z,4.41
2018-12-16T10:05:31.311Z,4.72
2018-12-16T10:08:07.586Z,4.43
2018-12-16T10:10:44.708Z,4.54
2018-12-16T10:13:20.945Z,4.33
2018-12-16T10:15:57.045Z,4.26
2018-12-16T10:18:33.091Z,4.86
2018-12-16T10:21:09.560Z,4.63
2018-12-16T10:23:45.428Z,4.60
2018-12-16T10:26:21.545Z,4.40
2018-12-16T10:28:57.554Z,4.41
2018-12-16T10:31:33.682Z,4.27
2018-12-16T10:34:09.675Z,4.31
2018-12-16T10:36:45.890Z,4.41
2018-12-16T10:39:21.852Z,4.49
2018-12-16T10:41:57.975Z,4.46
2018-12-16T10:44:55.595Z,4.62
2018-12-16T10:47:32.941Z,4.51
2018-12-16T10:50:09.344Z,4.41
2018-12-16T10:52:45.676Z,4.32
2018-12-16T10:55:21.830Z,4.41
2018-12-16T10:57:57.943Z,4.50
2018-12-16T11:00:40.678Z,4.24
2018-12-16T11:03:17.099Z,4.06
2018-12-16T11:05:53.138Z,4.25
2018-12-16T11:08:30.087Z,4.25
2018-12-16T11:11:06.182Z,4.14
2018-12-16T11:13:42.280Z,4.06
2018-12-16T11:16:18.415Z,3.84
2018-12-16T11:18:54.455Z,3.97
2018-12-16T11:21:30.737Z,4.11
2018-12-16T11:24:06.831Z,4.25
2018-12-16T11:26:42.863Z,4.47
2018-12-16T11:29:18.995Z,4.40
2018-12-16T11:31:54.975Z,4.04
2018-12-16T11:34:38.729Z,3.89
2018-12-16T11:37:14.785Z,4.19
2018-12-16T11:39:57.456Z,4.20
2018-12-16T11:42:34.476Z,4.34
2018-12-16T11:45:10.681Z,4.30
2018-12-16T11:47:47.394Z,4.17
2018-12-16T11:50:23.763Z,4.14
2018-12-16T11:52:59.861Z,4.08
2018-12-16T11:55:36.706Z,4.11
2018-12-16T11:58:12.768Z,4.14
2018-12-16T12:00:48.912Z,3.97
2018-12-16T12:03:24.892Z,3.93
2018-12-16T12:06:00.682Z,3.78
2018-12-16T12:08:36.703Z,3.60
2018-12-16T12:11:12.988Z,3.36
2018-12-16T12:13:49.121Z,3.14
2018-12-16T12:16:24.927Z,3.07
2018-12-16T12:19:02.107Z,2.97
2018-12-16T12:21:38.299Z,2.87
2018-12-16T12:24:14.303Z,2.77
2018-12-16T12:26:50.428Z,2.72
2018-12-16T12:29:26.497Z,2.63
2018-12-16T12:32:02.603Z,2.53
2018-12-16T12:34:38.572Z,2.37
2018-12-16T12:37:14.627Z,2.27
2018-12-16T12:39:50.680Z,2.25
2018-12-16T12:42:26.838Z,2.14
2018-12-16T12:45:02.863Z,1.95
2018-12-16T12:47:38.914Z,1.81
2018-12-16T12:50:14.928Z,1.78
2018-12-16T12:52:51.050Z,1.70
2018-12-16T12:55:27.204Z,1.55
2018-12-16T12:58:04.181Z,1.48
2018-12-16T13:00:40.079Z,1.44
2018-12-16T13:03:16.210Z,1.44
2018-12-16T13:05:52.195Z,1.46
2018-12-16T13:08:28.307Z,1.43
2018-12-16T13:11:04.309Z,1.30
2018-12-16T13:13:41.087Z,1.31
2018-12-16T13:16:17.374Z,1.41
2018-12-16T13:20:17.834Z,1.30
2018-12-16T13:22:53.973Z,1.24
2018-12-16T13:25:41.036Z,1.35
2018-12-16T13:28:17.268Z,1.36
2018-12-16T13:30:53.579Z,1.61
2018-12-16T13:33:29.569Z,1.42
2018-12-16T13:36:08.736Z,1.37
2018-12-16T13:38:44.831Z,1.55
2018-12-16T13:41:20.891Z,1.54
2018-12-16T13:43:56.911Z,1.52
2018-12-16T13:46:37.131Z,1.45
2018-12-16T13:49:13.319Z,1.58
2018-12-16T13:51:49.376Z,1.65
2018-12-16T13:54:25.482Z,1.74
2018-12-16T13:57:02.176Z,2.03
2018-12-16T13:59:38.480Z,2.11
2018-12-16T14:02:14.297Z,1.92
2018-12-16T14:04:50.295Z,1.77
2018-12-16T14:07:26.385Z,1.64
2018-12-16T14:10:02.405Z,1.60
2018-12-16T14:12:38.217Z,1.64
2018-12-16T14:15:16.985Z,1.56
2018-12-16T14:17:54.234Z,1.36
2018-12-16T14:20:30.339Z,1.47
2018-12-16T14:23:06.579Z,1.36
2018-12-16T14:25:47.997Z,1.46
2018-12-16T14:28:21.026Z,1.30
2018-12-16T14:30:57.039Z,1.15
2018-12-16T14:33:33.188Z,1.10
2018-12-16T14:36:09.146Z,1.19
2018-12-16T14:38:45.290Z,1.19
2018-12-16T14:42:45.593Z,0.99
2018-12-16T14:45:21.402Z,0.91
2018-12-16T14:47:57.580Z,0.82
2018-12-16T14:50:33.763Z,0.66
2018-12-16T14:53:09.990Z,0.39
2018-12-16T14:55:45.766Z,0.46
2018-12-16T14:58:21.801Z,0.56
2018-12-16T15:00:58.008Z,0.48
2018-12-16T15:03:34.028Z,0.47
2018-12-16T15:06:10.082Z,0.39
2018-12-16T15:08:46.419Z,0.37
2018-12-16T15:11:29.830Z,0.29
2018-12-16T15:14:06.961Z,0.19
2018-12-16T15:16:43.037Z,0.16
2018-12-16T15:19:19.243Z,0.14
2018-12-16T15:21:55.380Z,0.18
2018-12-16T15:24:31.318Z,0.19
2018-12-16T15:27:07.418Z,0.18
2018-12-16T15:29:44.356Z,0.24
2018-12-16T15:32:20.499Z,0.15
2018-12-16T15:34:56.818Z,0.28
2018-12-16T15:37:33.294Z,0.32
2018-12-16T15:40:09.557Z,0.36
2018-12-16T15:42:45.662Z,0.28
2018-12-16T15:45:27.667Z,0.20
2018-12-16T15:48:03.928Z,0.04
2018-12-16T15:50:39.947Z,0.03
2018-12-16T15:53:16.083Z,0.17
2018-12-16T15:58:40.371Z,0.32
2018-12-16T16:01:17.720Z,0.32
2018-12-16T16:03:53.783Z,0.35
2018-12-16T16:06:29.807Z,0.32
2018-12-16T16:09:08.032Z,0.42
2018-12-16T16:11:44.061Z,0.36
2018-12-16T16:14:20.142Z,0.37
2018-12-16T16:17:00.181Z,0.29
2018-12-16T16:19:36.298Z,0.23
2018-12-16T16:22:12.298Z,0.14
2018-12-16T16:24:48.475Z,-0.02
2018-12-16T16:27:24.415Z,-0.03
2018-12-16T16:30:00.503Z,-0.24
2018-12-16T16:32:36.510Z,-0.19
2018-12-16T16:35:12.666Z,-0.27
2018-12-16T16:37:49.447Z,-0.14
2018-12-16T16:40:26.234Z,-0.23
2018-12-16T16:43:02.539Z,-0.10
2018-12-16T16:45:38.734Z,-0.08
2018-12-16T16:48:14.755Z,-0.10
2018-12-16T16:50:50.837Z,-0.09
2018-12-16T16:53:26.865Z,-0.09
2018-12-16T16:56:03.369Z,-0.06
2018-12-16T16:58:39.293Z,-0.08
2018-12-16T17:01:15.410Z,-0.12
2018-12-16T17:03:51.391Z,-0.11
2018-12-16T17:06:27.551Z,-0.09
2018-12-16T17:09:05.287Z,-0.26
2018-12-16T17:11:41.194Z,-0.28
2018-12-16T17:14:17.563Z,-0.07
2018-12-16T17:16:53.985Z,0.08
2018-12-16T17:19:30.074Z,0.24
2018-12-16T17:22:06.675Z,0.31
2018-12-16T17:24:42.684Z,0.38
2018-12-16T17:27:19.319Z,0.51
2018-12-16T17:37:05.134Z,0.33
2018-12-16T17:39:36.361Z,0.36
2018-12-16T17:42:07.577Z,0.22
2018-12-16T17:44:38.634Z,0.05
2018-12-16T17:47:09.942Z,-0.12
2018-12-16T17:49:41.860Z,-0.14
2018-12-16T17:52:13.155Z,-0.11
2018-12-16T17:54:44.802Z,-0.26
2018-12-16T17:57:16.291Z,-0.22
2018-12-16T17:59:47.485Z,-0.34
2018-12-16T18:02:18.555Z,-0.45
2018-12-16T18:04:49.638Z,-0.34
2018-12-16T18:07:20.820Z,-0.31
2018-12-16T18:09:51.969Z,-0.32
2018-12-16T18:12:23.118Z,0.23
2018-12-16T18:14:54.186Z,-0.30
2018-12-16T18:17:25.423Z,-0.47
2018-12-16T18:19:56.855Z,-0.55
2018-12-16T18:22:27.991Z,-0.46
2018-12-16T18:24:59.086Z,-0.40
2018-12-16T18:27:29.991Z,-0.40
2018-12-16T18:30:00.910Z,-0.36
2018-12-16T18:32:31.964Z,-0.43
2018-12-16T18:35:03.238Z,-0.32
2018-12-16T18:37:35.715Z,-0.41
2018-12-16T18:40:07.886Z,-0.43
2018-12-16T18:42:41.503Z,-0.42
2018-12-16T18:45:18.078Z,-0.44
2018-12-16T18:47:58.818Z,-0.35
2018-12-16T18:50:29.719Z,-0.31
2018-12-16T18:53:00.811Z,-0.41
2018-12-16T18:55:31.904Z,-0.54
2018-12-16T18:58:03.383Z,-0.89
2018-12-16T19:00:34.531Z,-0.84
2018-12-16T19:03:05.777Z,-0.82
2018-12-16T19:05:36.761Z,-0.87
2018-12-16T19:08:07.967Z,-0.67
2018-12-16T19:10:39.213Z,-0.56
2018-12-16T19:13:10.291Z,-0.47
2018-12-16T19:15:41.362Z,-0.49
2018-12-16T19:18:12.771Z,-0.42
2018-12-16T19:20:44.043Z,-0.35
2018-12-16T19:23:15.164Z,-0.35
2018-12-16T19:25:46.247Z,-0.41
2018-12-16T19:28:17.420Z,-0.48
2018-12-16T19:30:48.579Z,-0.44
2018-12-16T19:33:19.719Z,-0.44
2018-12-16T19:35:50.828Z,-0.54
2018-12-16T19:38:22.001Z,-0.51
2018-12-16T19:41:10.246Z,-0.54
2018-12-16T19:43:45.221Z,-0.45
2018-12-16T19:46:16.322Z,-0.51
2018-12-16T19:48:47.487Z,-0.51
2018-12-16T19:51:18.572Z,-0.35
2018-12-16T19:53:49.833Z,-0.42
2018-12-16T19:56:21.149Z,0.11
2018-12-16T19:58:52.861Z,-0.16
2018-12-16T20:01:24.048Z,-0.27
2018-12-16T20:04:14.286Z,-0.35
2018-12-16T20:06:47.851Z,-0.50
2018-12-16T20:09:20.367Z,-0.38
2018-12-16T20:11:51.385Z,-0.37
2018-12-16T20:14:22.608Z,-0.48
2018-12-16T20:16:53.687Z,-0.44
2018-12-16T20:19:25.003Z,-0.45
2018-12-16T20:21:57.698Z,-0.42
2018-12-16T20:24:29.055Z,-0.43
2018-12-16T20:27:00.103Z,-0.52
2018-12-16T20:29:31.333Z,-0.55
2018-12-16T20:32:02.560Z,-0.51
2018-12-16T20:34:33.894Z,-0.53
2018-12-16T20:37:05.465Z,-0.48
2018-12-16T20:39:36.546Z,-0.37
2018-12-16T20:42:07.648Z,-0.39
2018-12-16T20:44:39.679Z,-0.45
2018-12-16T20:47:10.541Z,-0.37
2018-12-16T20:49:41.996Z,-0.25
2018-12-16T20:52:13.092Z,-0.22
2018-12-16T20:54:44.266Z,-0.14
2018-12-16T20:57:18.856Z,-0.13
2018-12-16T20:59:48.569Z,-0.26
2018-12-16T21:02:19.534Z,-0.14
2018-12-16T21:04:51.134Z,-0.08
2018-12-16T21:07:22.449Z,-0.12
2018-12-16T21:09:53.377Z,-0.37
2018-12-16T21:12:29.565Z,-0.37
2018-12-16T21:15:05.716Z,-0.38
2018-12-16T21:18:44.749Z,-0.39
2018-12-16T21:21:16.339Z,-0.61
2018-12-16T21:23:49.002Z,-0.45
2018-12-16T21:26:20.266Z,-0.28
2018-12-16T21:28:51.759Z,-0.09
2018-12-16T21:31:23.916Z,-0.14
2018-12-16T21:33:54.983Z,-0.21
2018-12-16T21:36:26.841Z,-0.16
2018-12-16T21:38:57.965Z,-0.08
2018-12-16T21:41:31.709Z,-0.05
2018-12-16T21:44:02.795Z,-0.12
2018-12-16T21:46:33.959Z,-0.10
2018-12-16T21:49:05.980Z,0.00
2018-12-16T21:51:38.482Z,0.07
2018-12-16T21:54:09.894Z,0.17
2018-12-16T21:56:41.349Z,0.18
2018-12-16T21:59:13.069Z,0.17
2018-12-16T22:01:44.725Z,0.14
2018-12-16T22:04:15.887Z,0.09
2018-12-16T22:06:51.632Z,0.22
2018-12-16T22:09:22.548Z,0.25
2018-12-16T22:11:53.891Z,0.19
2018-12-16T22:14:27.661Z,0.18
2018-12-16T22:17:03.196Z,0.20
2018-12-16T22:19:34.921Z,-0.04
2018-12-16T22:22:07.124Z,0.09
2018-12-16T22:24:39.711Z,0.21
2018-12-16T22:27:12.523Z,-0.09
2018-12-16T22:29:45.750Z,-0.17
2018-12-16T22:32:17.772Z,-0.18
2018-12-16T22:34:51.177Z,-0.32
2018-12-16T22:37:25.093Z,-0.47
2018-12-16T22:39:57.190Z,-0.38
2018-12-16T22:42:29.832Z,-0.50
2018-12-16T22:45:02.035Z,-0.50
2018-12-16T22:47:33.583Z,-0.20
2018-12-16T22:50:06.513Z,-0.24
2018-12-16T22:52:38.740Z,-0.28
2018-12-16T22:55:10.793Z,-0.25
2018-12-16T22:57:47.039Z,-0.30
2018-12-16T23:00:20.167Z,-0.38
2018-12-16T23:02:52.008Z,-0.33
2018-12-16T23:05:24.710Z,-0.37
2018-12-16T23:07:56.891Z,-0.76
2018-12-16T23:10:30.156Z,-0.61
2018-12-16T23:13:05.624Z,-0.60
2018-12-16T23:15:37.663Z,-0.77
2018-12-16T23:18:08.889Z,-0.79
2018-12-16T23:20:40.085Z,-0.88
2018-12-16T23:23:11.289Z,-0.72
2018-12-16T23:25:42.431Z,-0.65
2018-12-16T23:28:13.865Z,-0.61
2018-12-16T23:30:45.901Z,-0.92
2018-12-16T23:33:17.687Z,-1.00
2018-12-16T23:35:49.064Z,-0.91
2018-12-16T23:38:20.228Z,-0.86
2018-12-16T23:40:51.330Z,-0.79
2018-12-16T23:43:22.504Z,-0.73
2018-12-16T23:45:59.327Z,-0.83
2018-12-16T23:48:30.236Z,-0.87
2018-12-16T23:51:01.088Z,-0.92
2018-12-16T23:53:31.999Z,-1.07
2018-12-16T23:56:03.122Z,-1.25
2018-12-16T23:58:34.302Z,-1.29
